Nippers Harbour, Canada
Current Conditions -  °F | °C
As of 7:00 PM on Sunday 25 Jan 2015 (Local Time) from CYDF Reporting Station
Snow Showers Snow Showers  
Wind Chill: 19°   Ceiling: 2000
Heat Index: 30°   Visibility: 7mi
Dew Point: 25°   Wind: 15mph
Humidity: 80%   Direction: 230°SW
Pressure: 29.07"   Gusts: 26mph
Location:  49.78°N, 55.87°W
Report Text: CYDF 252200Z 23013G23KT 7SM -SHSN BKN020 OVC033 M01/M04 A2907 RMK SC5SC3 SLP845
Loading
Personal Weather Stations






























Interactive Weather Map New forecast layout! Learn more

10-Day Weather Forecast

Advertisements
Track Severe Weather on mobile